Jakob Christensen

Olheiro-Chefe - Brondby
3 Dez 2028
Domingo
Processo

Personalidade

Adaptabilidade (17) Ambição (1) Controvérsia (14) Lealdade (13) Pressão (10) Profissionalismo (11) Espírito Esportivo (1) Temperamento (15)

Perfil

Estilo de Treinamento Democrático
Licença Continental Pro
Determinação 6
Gestão de Pessoas 8
Motivação 11
Disciplina 9
Satisfação no Trabalho
68%
Fadiga
0%
Função Olheiro-Chefe
Salário 41.5K p/s
Contrato 14.03.2030

Desempenho

Comportamento Bom
Eficácia do Treinamento
29%
Desenvolvimento do Jogador
25%
Prevenção de Lesões
30%
Implementação Tática
65%

Eventos Recentes

Recomendou um alvo de transferência agora
Participou de uma reunião de recrutamento agora
Participou de uma reunião de recrutamento agora
Aniversário agora
Avaliou um jogador agora
Avaliou um jogador agora
Avaliou um jogador agora
Avaliou um jogador agora

Monitorando agora

218
Jogador Clube Status Habilidade Confiança Observado Última observação Último voto
Lisandro Piñero Banfield Ativo 142 / 132 40% 2 02.12.2028 -
Ayyoub Bouaddi Stoke City Ativo 157 / 154 40% 2 01.12.2028 -
Santiago Segovia Rosario Central Ativo 121 / 120 40% 1 01.12.2028 -
Ibrahim Mbaye Queens Park Rangers Ativo 130 / 148 40% 2 30.11.2028 -
Julián Bragado Morón Ativo 80 / 88 40% 1 30.11.2028 -
Tiziano Cabrera Central Norte Ativo 100 / 98 40% 2 29.11.2028 -
Tahiel Peralta Racing Club Ativo 111 / 119 40% 1 29.11.2028 -
Joseph Abah Remo Stars Ativo 77 / 99 40% 1 28.11.2028 -
Valentino Huertas Morón Ativo 108 / 106 40% 1 28.11.2028 -
Álvaro Montoro Botafogo Ativo 136 / 142 40% 1 27.11.2028 -
Lionel Jara Central Córdoba SdE Ativo 101 / 98 40% 1 27.11.2028 -
Celías Ingenthron Platense Ativo 124 / 131 40% 1 26.11.2028 -
Luis Otávio Orlando City Ativo 113 / 129 40% 1 26.11.2028 -
Chimobi Igwilo Rangers International Ativo 93 / 97 40% 2 18.11.2028 -
Nadir Sánchez Central Córdoba SdE Ativo 113 / 111 40% 1 16.11.2028 -
Harry Gray Harrogate Town Ativo 138 / 134 40% 1 10.11.2028 -
Matías Arias Vélez Ativo 119 / 118 40% 1 10.11.2028 -
Musa Malik Ikorodu City Ativo 89 / 103 40% 2 09.11.2028 -
Rio Ngumoha Plymouth Argyle Ativo 153 / 154 40% 1 09.11.2028 -
Ousseynou Seck Randers Ativo 122 / 128 40% 1 08.11.2028 -
Mateo Faure BATE Ativo 95 / 103 40% 1 08.11.2028 -
Mateo Lizondo Colón Ativo 96 / 99 40% 1 06.11.2028 -
Daniel Banjaqui Benfica Ativo 119 / 139 40% 3 07.08.2028 -
Ryan McAidoo Oldham Athletic Ativo 145 / 128 40% 1 07.08.2028 -
Jonathan Foss Esbjerg Ativo 109 / 103 55% 1 03.07.2028 -
Mohamed Cherif Haïdara Randers Ativo 110 / 115 55% 1 12.06.2028 -
Ayden Heaven Portsmouth Ativo 152 / 152 40% 4 08.06.2028 -
Tobiáš Pališčák Zlin Ativo 118 / 105 40% 4 08.06.2028 -
Largie Ramazani Leeds United Ativo 146 / 143 40% 1 31.05.2028 -
Jan Bürger Northampton Town Ativo 128 / 130 40% 7 17.05.2028 -
Andrija Bulatović Chamois Niortais Ativo 131 / 136 40% 2 15.05.2028 -
Christos Mouzakitis Hull City Ativo 149 / 140 40% 5 13.05.2028 -
Andrey Ivlev Nizhniy Novgorod Ativo 96 / 121 40% 2 13.05.2028 -
Lucas Høgsberg RC Strasbourg Ativo 145 / 144 40% 3 12.05.2028 -
Federico Matarán Giana Erminio Ativo 105 / 109 40% 2 12.05.2028 -
Bernardo Lima Porto Ativo 119 / 117 40% 2 07.05.2028 -
Tyler Fletcher Rotherham United Ativo 111 / 122 40% 5 06.05.2028 -
Honest Ahanor Atalanta Ativo 134 / 143 40% 8 01.05.2028 -
Thijs Kraaijeveld USM Alger Ativo 129 / 129 40% 4 18.04.2028 -
Josh Nichols Oldham Athletic Ativo 136 / 124 40% 3 16.04.2028 -
Trey Nyoni Rotherham United Ativo 137 / 142 40% 2 14.04.2028 -
Victor Hernandez Santa Fe Ativo 102 / 132 40% 5 13.04.2028 -
Martim Cunha Porto Ativo 121 / 117 40% 5 12.04.2028 -
Jorthy Mokio ADO Den Haag Ativo 121 / 139 40% 2 29.03.2028 -
Konta Ismaily Ativo 89 / 105 40% 1 26.03.2028 -
Giovanni Leoni Lincoln City Ativo 131 / 143 40% 4 25.03.2028 -
Kiani Inge Groningen Ativo 95 / 119 40% 2 23.03.2028 -
Kamaldeen Atiemo Wa All Stars Ativo 87 / 103 40% 1 19.03.2028 -
Abubakar Adams Aduana Stars Ativo 90 / 88 40% 1 15.03.2028 -
Matias Siltanen Malmo FF Ativo 119 / 132 40% 2 06.03.2028 -
Malte Heyde Esbjerg Ativo 111 / 115 40% 2 02.03.2028 -
Olivier Leroux Mouscron Ativo 104 / 104 40% 3 02.03.2028 -
Zane Albarus Shrewsbury Town Ativo 94 / 106 40% 5 01.03.2028 -
Colin Guske Orlando City Ativo 80 / 102 40% 3 27.02.2028 -
Dmytro Strilchuk Podillia Ativo 81 / 88 40% 1 25.02.2028 -
Romuald Sawadogo Hapoel Raanana Ativo 118 / 107 40% 1 25.02.2028 -
Josh Acheampong Everton Ativo 150 / 150 40% 2 19.02.2028 -
Matvey Bardachev Zenit Ativo 116 / 117 40% 1 17.02.2028 -
Lucas Camejo River Plate Ativo 89 / 86 40% 4 08.02.2028 -
Nicolás Fernández Mercau Club America Ativo 134 / 134 67% 1 24.01.2028 Aprovar
Dejan Joveljić Seattle Sounders Ativo 133 / 134 40% 3 17.01.2028 -
Bitello Universidad de Chile Ativo 135 / 135 68% 1 01.01.2028 Aprovar
Hugo Rojas Instituto Ativo 91 / 109 40% 1 03.12.2027 -
Juan Camilo Córdoba Deportivo Pereira Ativo 74 / 92 40% 2 01.12.2027 -
Caleb Yirenkyi Coventry City Ativo 135 / 146 40% 3 30.11.2027 -
Esquerdinha Notts County Ativo 101 / 130 40% 2 28.11.2027 -
Tiago Gordillo San Miguel Ativo 98 / 89 40% 2 26.11.2027 -
Olaniyi Saheed Kwara United Ativo 85 / 101 40% 3 25.11.2027 -
Onyeuche Ujunwa Ikorodu City Ativo 90 / 89 40% 3 22.11.2027 -
David Damboama El-Kanemi Warriors Ativo 96 / 90 40% 3 15.11.2027 -
Ignacio Fernández Boston River Ativo 94 / 103 40% 4 12.11.2027 -
Mohamed Moussa Koïta Mathare United Ativo 86 / 106 40% 1 09.11.2027 -
Archie Gray Southampton Ativo 168 / 158 40% 7 08.11.2027 -
Lucas Bergvall Tottenham Ativo 167 / 150 40% 1 02.11.2027 -
Joel Ezra Enyimba Ativo 84 / 104 40% 5 26.10.2027 -
Nahuel Leivas Montevideo City Torque Ativo 124 / 116 40% 5 18.10.2027 -
Daniel Idoko Ikorodu City Ativo 99 / 89 40% 2 15.10.2027 -
Juan Diego Perdomo Depor Ativo 98 / 90 40% 1 14.10.2027 -
Esteban de Lima Tacuarembo Ativo 110 / 101 40% 4 13.10.2027 -
Godwin Oham Warri Wolves Ativo 82 / 84 40% 3 13.10.2027 -
Issa Yusuf Shooting Stars Ativo 72 / 85 40% 1 12.10.2027 -
Yury Oyarzo Racing Ativo 82 / 94 40% 2 11.10.2027 -
Jonny Shore New York City Ativo 79 / 100 40% 1 10.10.2027 -
Gideon Manaseh Ikorodu City Ativo 109 / 96 40% 1 04.10.2027 -
Mpho Khethang FC Diarra Ativo 107 / 95 40% 1 23.09.2027 -
Óscar Hinojosa Metropolitanos Ativo 89 / 92 40% 1 22.09.2027 -
Diego Vargas Universidad de Concepcion Ativo 88 / 103 40% 1 22.09.2027 -
Francisco Machis Llaneros Ativo 74 / 84 40% 1 20.09.2027 -
Hosea Michael Remo Stars Ativo 93 / 93 40% 2 11.09.2027 -
Azizbek To'lqinbekov Bunyodkor Ativo 84 / 103 40% 1 11.09.2027 -
Ivan Borges Defensores Ativo 76 / 89 40% 1 07.09.2027 -
Gonçalo Oliveira Benfica Ativo 106 / 113 40% 4 08.06.2027 -
Andrea Bertoncini Triestina Ativo 90 / 90 40% 2 07.06.2027 -
Maldini Kacurri Grimsby Town Ativo 84 / 105 40% 1 07.06.2027 -
Mike Themsen Randers Ativo 124 / 123 48% 1 01.06.2027 Observar
Tommaso Cecotti Carpi Ativo 105 / 93 40% 1 01.06.2027 -
Cameron Archer Southampton Ativo 127 / 135 40% 1 31.05.2027 -
Milan van Ewijk Coventry City Ativo 117 / 124 40% 3 30.05.2027 -
Leighton Clarkson Blackpool Ativo 118 / 117 40% 2 30.05.2027 -
Kristoffer Lund Birmingham Ativo 121 / 132 40% 4 29.05.2027 -
Tariq Lamptey Queens Park Rangers Ativo 127 / 129 40% 1 29.05.2027 -
Jacques Ekomié Wrexham Ativo 113 / 138 40% 5 28.05.2027 -
Welington Southampton Ativo 143 / 122 40% 4 28.05.2027 -
Harry Clarke Preston Ativo 140 / 120 40% 6 26.05.2027 -
Moussa Baradji Blackburn Rovers Ativo 138 / 114 40% 3 26.05.2027 -
Oliver Skipp Leicester City Ativo 127 / 139 40% 2 25.05.2027 -
Will Fish Cardiff City Ativo 122 / 124 40% 2 25.05.2027 -
Jacob Greaves Ipswich Town Ativo 153 / 130 40% 3 24.05.2027 -
Alfie Doughty Millwall Ativo 143 / 134 40% 1 24.05.2027 -
Enrico Delprato Parma Ativo 152 / 131 40% 2 22.05.2027 -
Charlie Gray Fleetwood Town Ativo 109 / 92 40% 1 22.05.2027 -
Florentino Luís Ipswich Town Ativo 155 / 145 40% 4 20.05.2027 -
Hayden Carter Blackburn Rovers Ativo 119 / 124 40% 1 20.05.2027 -
Jonathan Varane Queens Park Rangers Ativo 146 / 132 40% 2 19.05.2027 -
Luke McNally Bristol City Ativo 137 / 134 40% 5 19.05.2027 -
Kazunari Kita Real Sociedad Ativo 109 / 107 40% 1 18.05.2027 -
Aidan Morris Middlesbrough Ativo 120 / 136 40% 3 17.05.2027 -
Riley Owen Stevenage Ativo 92 / 112 40% 2 14.05.2027 -
Toby Collyer West Bromwich Albion Ativo 149 / 126 40% 3 12.05.2027 -
Shea Charles Southampton Ativo 155 / 134 40% 2 10.05.2027 -
Jordan Beyer Burnley Ativo 130 / 136 40% 1 10.05.2027 -
Ethan Pye Stockport County Ativo 121 / 120 40% 2 09.05.2027 -
Bosun Lawal Stoke City Ativo 129 / 128 40% 2 08.05.2027 -
Brooke Norton-Cuffy Hull City Ativo 132 / 129 40% 2 07.05.2027 -
Alfie Gilchrist West Bromwich Albion Ativo 125 / 132 40% 1 06.05.2027 -
Derry Murkin Derby County Ativo 142 / 125 40% 2 02.05.2027 -
Miguel Figueiredo Benfica Ativo 106 / 127 40% 2 30.04.2027 -
Darlin Yongwa Norwich City Ativo 110 / 129 40% 1 30.04.2027 -
Dennis Cirkin Queens Park Rangers Ativo 142 / 123 40% 3 28.04.2027 -
Lee Buchanan Sheffield Wednesday Ativo 104 / 120 40% 1 27.04.2027 -
Max Arfsten Middlesbrough Ativo 140 / 133 40% 1 24.04.2027 -
Habib Diarra Sunderland Ativo 134 / 135 40% 2 20.04.2027 -
Andre Dozzell Bradford City Ativo 129 / 116 40% 2 20.04.2027 -
Lucas Da Cunha Como Ativo 162 / 140 40% 3 19.04.2027 -
Adam Randell Bristol City Ativo 123 / 124 40% 4 17.04.2027 -
Billy Gilmour Napoli Ativo 152 / 139 40% 1 16.04.2027 -
Edwin Asamoah Berekum Chelsea Ativo 98 / 88 40% 1 16.04.2027 -
Maxim Radchenko Rostov Ativo 80 / 83 40% 2 14.04.2027 -
Samuele di Benedetto Twente Ativo 93 / 126 40% 1 14.04.2027 -
Hjalte Bidstrup Viborg Ativo 105 / 115 48% 3 13.04.2027 -
Terry Devlin Portsmouth Ativo 132 / 124 40% 1 11.04.2027 -
Lewis Gibson Preston Ativo 108 / 118 40% 2 07.04.2027 -
Ronnie Edwards Queens Park Rangers Ativo 128 / 136 40% 1 02.04.2027 -
Leandro Martins Benfica Ativo 103 / 105 40% 1 28.03.2027 -
Gabriel Gudmundsson Leeds United Ativo 149 / 150 40% 1 18.03.2027 -
Samuele Diodato Lumezzane Ativo 78 / 92 40% 1 13.03.2027 -
Sascha Britschgi AC Milan Ativo 105 / 126 40% 1 13.03.2027 -
Brian De Keersmaecker Oxford United Ativo 115 / 125 40% 1 12.03.2027 -
Max Bird Birmingham Ativo 138 / 128 40% 3 09.03.2027 -
Max Johnston Derby County Ativo 123 / 120 40% 2 08.03.2027 -
Lukáš Červ Viktoria Plzen Ativo 123 / 137 40% 1 06.03.2027 -
Lewis Bate Stockport County Ativo 113 / 121 40% 1 01.03.2027 -
Pelle Mattsson Norwich City Ativo 109 / 130 40% 1 01.03.2027 -
Álex Centelles Levski Ativo 114 / 133 40% 1 25.02.2027 -
Nicolas Madsen Queens Park Rangers Ativo 126 / 124 40% 1 24.02.2027 -
Japhet Tanganga Sheffield United Ativo 140 / 131 40% 2 23.02.2027 -
Joel Bagan Cardiff City Ativo 99 / 110 40% 1 22.02.2027 -
Dara O'Shea Ipswich Town Ativo 143 / 135 40% 1 20.02.2027 -
Jack Currie Oxford United Ativo 108 / 131 40% 2 19.02.2027 -
Ousmane Diakité West Bromwich Albion Ativo 139 / 130 40% 1 15.02.2027 -
Michael Baidoo Plymouth Argyle Ativo 126 / 124 40% 1 14.02.2027 -
Anel Ahmedhodžić Burnley Ativo 124 / 138 40% 1 12.02.2027 -
Nikita Krivtsov Krasnodar Ativo 118 / 124 40% 2 11.02.2027 -
Idris El Mizouni Leyton Orient Ativo 109 / 109 40% 1 08.02.2027 -
André Wolverhampton Ativo 156 / 141 40% 1 06.02.2027 -
Juan Bezerra Zamalek Ativo 120 / 123 40% 1 18.01.2027 -
Mikey Johnston West Bromwich Albion Ativo 128 / 129 40% 1 18.01.2027 -
Bongani Zungu Ajax Cape Town Ativo 135 / 129 40% 2 13.01.2027 -
Alessio Zerbin Frosinone Ativo 145 / 136 40% 1 02.01.2027 -
Petar Stanić Ludogorets Ativo 122 / 145 40% 2 01.01.2027 -
Tyrhys Dolan Espanyol Ativo 146 / 130 40% 2 01.01.2027 -
Luiz Henrique AS Roma Ativo 142 / 143 68% 1 01.01.2027 Aprovar
Stanislav Agkatsev Brentford Ativo 132 / 133 66% 1 01.01.2027 Aprovar
Emmanuel Boateng Hapoel Tel Aviv Ativo 111 / 114 40% 1 30.12.2026 -
Mamadou Sylla Al-Riyadh Ativo 127 / 115 40% 1 27.12.2026 -
Sota Kitano Red Bull Salzburg Ativo 117 / 134 40% 4 23.12.2026 -
Zian Flemming Ipswich Town Ativo 140 / 124 40% 1 23.12.2026 -
Josh Windass Wrexham Ativo 125 / 121 40% 1 22.12.2026 -
Tyrese Campbell Sheffield United Ativo 114 / 123 40% 1 22.12.2026 -
Hwang Hee-Chan Wolverhampton Ativo 124 / 123 40% 1 19.12.2026 -
Ola Solbakken FC Nordsjaelland Ativo 116 / 128 40% 2 17.12.2026 -
Kevin Yakob AGF Ativo 136 / 130 40% 1 11.12.2026 -
Finn Azaz Southampton Ativo 145 / 120 40% 1 11.12.2026 -
Reda Khadra Qarabag Ativo 153 / 129 40% 1 07.12.2026 Mais informações
Steven Bergwijn Al-Ittihad Ativo 160 / 154 40% 2 30.11.2026 -
Václav Jurečka Banik Ostrava Ativo 143 / 110 40% 1 28.11.2026 -
Nicolò Zaniolo Udinese Ativo 145 / 141 40% 1 24.11.2026 -
Mohammad Hosseini Malavan Ativo 100 / 127 40% 1 21.11.2026 -
Ola Brynhildsen Rapid Wien Ativo 128 / 128 40% 1 17.11.2026 -
Alexey Miranchuk Atlanta United FC Ativo 131 / 147 40% 6 15.11.2026 -
Ammar Ramadan DAC Dunajska Streda Ativo 117 / 114 40% 1 15.11.2026 -
Wessam Abou Ali Columbus Crew Ativo 115 / 124 40% 3 12.11.2026 -
Ibrahim Saeed Al Shabab Ativo 136 / 124 40% 1 11.11.2026 -
Talles Magno New York City Ativo 114 / 136 40% 5 05.11.2026 -
Cho Gue-Sung FC Midtjylland Ativo 114 / 124 40% 2 04.11.2026 -
Erik Botheim Viking Ativo 135 / 124 40% 1 03.11.2026 -
Armstrong Oko-Flex Levski Ativo 126 / 129 40% 1 02.11.2026 -
Haris Tabaković Red Bull Salzburg Ativo 122 / 138 40% 1 22.10.2026 -
Bongani Khune SuperSport United Ativo 111 / 130 40% 1 19.10.2026 -
Morgan Guilavogui Real Salt Lake Ativo 108 / 134 40% 1 17.10.2026 -
Fiete Arp OB Ativo 126 / 133 40% 2 11.10.2026 -
Luka Jović CFR Cluj Ativo 124 / 129 40% 1 10.10.2026 -
Brandon Vázquez Austin FC Ativo 103 / 117 40% 1 03.10.2026 -
Anderson Julio FC Dallas Ativo 104 / 117 40% 1 30.09.2026 -
Bénie Traoré New York City Ativo 108 / 136 40% 1 30.09.2026 -
Pep Biel Charlotte Football Club Ativo 146 / 120 40% 1 29.09.2026 -
Kévin Denkey FC Cincinnati Ativo 124 / 126 40% 2 27.09.2026 -
Ibrahim Adel FC Nordsjaelland Ativo 114 / 127 40% 1 25.09.2026 -
Timo Werner San Jose Earthquakes Ativo 109 / 131 40% 1 25.09.2026 -
Brian White Vancouver Whitecaps Ativo 137 / 121 40% 1 24.09.2026 -
Germán Berterame Inter Miami CF Ativo 116 / 122 40% 2 20.09.2026 -
Theo Corbeanu Toronto FC Ativo 102 / 128 40% 1 16.09.2026 -
João Klauss LA Galaxy Ativo 143 / 120 40% 1 16.09.2026 -
Dániel Gazdag New England Revolution Ativo 152 / 119 40% 1 15.09.2026 -
Petar Musa FC Dallas Ativo 149 / 142 40% 1 08.09.2026 -
Tobias Bech AGF Ativo 113 / 122 40% 1 31.08.2026 -
Gabriel Martinelli Arsenal Ativo 156 / 156 40% 1 01.08.2026 -
Senny Mayulu Paris Saint-Germain Ativo 124 / 154 40% 1 01.08.2026 -